HKE563 VVDN-VHHH
Flight info
| Callsign | HKE563 |
|---|---|
| Flight time | N/A |
| Altitude | 35000 |
| Route | BUNTA2G BUNTA A1 IKELA/N0448F350 P901 IDOSI V561 CANTO |
| Aircraft | A320/M-SDE3FGHIRWY/LB1 |
Departure
| Time | 2026-04-24 07:16 |
|---|---|
| Airport | Da Nang International Airport (VVDN) |
Arrival
| Time | N/A |
|---|---|
| Airport | Hong Kong International Airport (VHHH) |
| Time | Latitude | Longitude | Altitude | Speed | Heading |
|---|---|---|---|---|---|
| 2026-04-24 06:48 | 16.05597 | 108.20150 | 35 ft | 0 kts | 81° |
| 2026-04-24 07:06 | 16.05595 | 108.20136 | 35 ft | 4 kts | 81° |
| 2026-04-24 07:06 | 16.05591 | 108.20109 | 35 ft | 4 kts | 83° |
| 2026-04-24 07:06 | 16.05589 | 108.20081 | 35 ft | 4 kts | 86° |
| 2026-04-24 07:07 | 16.05587 | 108.20053 | 34 ft | 4 kts | 91° |
| 2026-04-24 07:07 | 16.05590 | 108.20025 | 34 ft | 4 kts | 109° |
| 2026-04-24 07:07 | 16.05608 | 108.20006 | 33 ft | 0 kts | 172° |
| 2026-04-24 07:09 | 16.05601 | 108.20007 | 34 ft | 2 kts | 172° |
| 2026-04-24 07:10 | 16.05578 | 108.20010 | 34 ft | 5 kts | 172° |
| 2026-04-24 07:10 | 16.05525 | 108.20017 | 34 ft | 10 kts | 172° |
| 2026-04-24 07:10 | 16.05446 | 108.20028 | 34 ft | 13 kts | 172° |
| 2026-04-24 07:10 | 16.05351 | 108.20042 | 34 ft | 15 kts | 172° |
| 2026-04-24 07:11 | 16.05246 | 108.20057 | 34 ft | 16 kts | 172° |
| 2026-04-24 07:11 | 16.05132 | 108.20073 | 33 ft | 17 kts | 171° |
| 2026-04-24 07:11 | 16.05101 | 108.20078 | 34 ft | 18 kts | 171° |
| 2026-04-24 07:11 | 16.04980 | 108.20097 | 33 ft | 20 kts | 171° |
| 2026-04-24 07:12 | 16.04873 | 108.20114 | 33 ft | 21 kts | 171° |
| 2026-04-24 07:12 | 16.04751 | 108.20132 | 34 ft | 22 kts | 172° |
| 2026-04-24 07:13 | 16.04595 | 108.20155 | 33 ft | 23 kts | 172° |
| 2026-04-24 07:13 | 16.04428 | 108.20179 | 33 ft | 25 kts | 172° |
| 2026-04-24 07:13 | 16.04252 | 108.20203 | 34 ft | 26 kts | 172° |
| 2026-04-24 07:13 | 16.04087 | 108.20227 | 34 ft | 22 kts | 172° |
| 2026-04-24 07:14 | 16.03930 | 108.20249 | 35 ft | 23 kts | 172° |
| 2026-04-24 07:14 | 16.03845 | 108.20258 | 35 ft | 8 kts | 193° |
| 2026-04-24 07:14 | 16.03821 | 108.20221 | 34 ft | 0 kts | 261° |
| 2026-04-24 07:15 | 16.03820 | 108.20218 | 34 ft | 1 kts | 261° |
| 2026-04-24 07:15 | 16.03818 | 108.20198 | 35 ft | 5 kts | 261° |
| 2026-04-24 07:15 | 16.03821 | 108.20147 | 35 ft | 10 kts | 302° |
| 2026-04-24 07:15 | 16.03907 | 108.20112 | 34 ft | 26 kts | 349° |
| 2026-04-24 07:16 | 16.04319 | 108.20052 | 33 ft | 91 kts | 352° |
| 2026-04-24 07:16 | 16.05104 | 108.19937 | 33 ft | 138 kts | 352° |
| 2026-04-24 07:16 | 16.06161 | 108.19775 | 325 ft | 151 kts | 354° |
| 2026-04-24 07:16 | 16.07160 | 108.19627 | 1013 ft | 141 kts | 354° |
| 2026-04-24 07:17 | 16.08111 | 108.19484 | 1531 ft | 140 kts | 353° |
| 2026-04-24 07:17 | 16.09068 | 108.19318 | 1843 ft | 145 kts | 352° |
| 2026-04-24 07:17 | 16.10141 | 108.19243 | 1985 ft | 165 kts | 358° |
| 2026-04-24 07:17 | 16.11391 | 108.19236 | 2170 ft | 192 kts | 359° |
| 2026-04-24 07:18 | 16.12799 | 108.19241 | 2454 ft | 217 kts | 360° |
| 2026-04-24 07:18 | 16.14394 | 108.19247 | 2802 ft | 241 kts | 359° |
| 2026-04-24 07:18 | 16.16142 | 108.19252 | 3325 ft | 257 kts | 359° |
| 2026-04-24 07:18 | 16.17947 | 108.19254 | 4125 ft | 261 kts | 360° |
| 2026-04-24 07:19 | 16.19785 | 108.19257 | 4892 ft | 268 kts | 360° |
| 2026-04-24 07:19 | 16.21676 | 108.19259 | 5634 ft | 274 kts | 360° |
| 2026-04-24 07:19 | 16.23600 | 108.19260 | 6365 ft | 279 kts | 359° |
| 2026-04-24 07:19 | 16.25533 | 108.19258 | 7073 ft | 283 kts | 358° |
| 2026-04-24 07:20 | 16.27511 | 108.19255 | 7777 ft | 287 kts | 358° |
| 2026-04-24 07:20 | 16.29525 | 108.19253 | 8480 ft | 292 kts | 359° |
| 2026-04-24 07:20 | 16.31535 | 108.19633 | 9166 ft | 298 kts | 21° |
| 2026-04-24 07:20 | 16.33269 | 108.20818 | 9851 ft | 303 kts | 46° |
| 2026-04-24 07:21 | 16.34441 | 108.22642 | 10457 ft | 307 kts | 69° |
| 2026-04-24 07:21 | 16.35167 | 108.24814 | 10647 ft | 329 kts | 72° |
| 2026-04-24 07:21 | 16.35866 | 108.27123 | 10813 ft | 347 kts | 73° |
| 2026-04-24 07:21 | 16.36582 | 108.29557 | 11285 ft | 355 kts | 73° |
| 2026-04-24 07:22 | 16.37308 | 108.32025 | 11854 ft | 359 kts | 73° |
| 2026-04-24 07:22 | 16.38045 | 108.34512 | 12464 ft | 362 kts | 73° |
| 2026-04-24 07:22 | 16.38796 | 108.37023 | 13051 ft | 365 kts | 73° |
| 2026-04-24 07:22 | 16.39561 | 108.39558 | 13634 ft | 368 kts | 73° |
| 2026-04-24 07:23 | 16.40333 | 108.42104 | 14161 ft | 371 kts | 73° |
| 2026-04-24 07:23 | 16.41120 | 108.44692 | 14623 ft | 376 kts | 73° |
| 2026-04-24 07:23 | 16.41914 | 108.47306 | 15099 ft | 380 kts | 73° |
| 2026-04-24 07:23 | 16.42709 | 108.49931 | 15591 ft | 383 kts | 73° |
| 2026-04-24 07:24 | 16.43511 | 108.52590 | 16066 ft | 387 kts | 73° |
| 2026-04-24 07:24 | 16.44317 | 108.55279 | 16539 ft | 390 kts | 73° |
| 2026-04-24 07:24 | 16.45130 | 108.57987 | 17030 ft | 393 kts | 73° |
| 2026-04-24 07:24 | 16.45916 | 108.60683 | 17497 ft | 397 kts | 74° |
| 2026-04-24 07:25 | 16.46692 | 108.63461 | 17959 ft | 400 kts | 74° |
| 2026-04-24 07:25 | 16.47455 | 108.66265 | 18382 ft | 404 kts | 75° |
| 2026-04-24 07:25 | 16.48219 | 108.69097 | 18797 ft | 407 kts | 75° |
| 2026-04-24 07:25 | 16.48994 | 108.71945 | 19220 ft | 410 kts | 74° |
| 2026-04-24 07:26 | 16.49779 | 108.74803 | 19655 ft | 413 kts | 74° |
| 2026-04-24 07:26 | 16.50574 | 108.77688 | 20091 ft | 416 kts | 74° |
| 2026-04-24 07:26 | 16.51375 | 108.80599 | 20530 ft | 418 kts | 74° |
| 2026-04-24 07:26 | 16.52166 | 108.83480 | 20961 ft | 421 kts | 74° |
| 2026-04-24 07:27 | 16.52978 | 108.86425 | 21360 ft | 425 kts | 74° |
| 2026-04-24 07:27 | 16.53799 | 108.89397 | 21772 ft | 428 kts | 74° |
| 2026-04-24 07:27 | 16.54623 | 108.92383 | 22195 ft | 431 kts | 74° |
| 2026-04-24 07:27 | 16.55477 | 108.95386 | 22601 ft | 434 kts | 71° |
| 2026-04-24 07:28 | 16.56694 | 108.98276 | 22989 ft | 437 kts | 60° |
| 2026-04-24 07:28 | 16.58333 | 109.00958 | 23391 ft | 439 kts | 55° |
| 2026-04-24 07:28 | 16.60060 | 109.03603 | 23717 ft | 442 kts | 55° |
| 2026-04-24 07:28 | 16.61788 | 109.06251 | 24045 ft | 444 kts | 55° |
| 2026-04-24 07:29 | 16.63506 | 109.08889 | 24367 ft | 446 kts | 55° |
| 2026-04-24 07:29 | 16.65250 | 109.11570 | 24703 ft | 448 kts | 55° |
| 2026-04-24 07:29 | 16.66999 | 109.14265 | 24991 ft | 450 kts | 55° |
| 2026-04-24 07:29 | 16.68760 | 109.16984 | 25302 ft | 452 kts | 55° |
| 2026-04-24 07:30 | 16.70522 | 109.19708 | 25602 ft | 454 kts | 55° |
| 2026-04-24 07:30 | 16.72296 | 109.22448 | 25893 ft | 457 kts | 55° |
| 2026-04-24 07:30 | 16.74075 | 109.25195 | 26184 ft | 459 kts | 55° |
| 2026-04-24 07:30 | 16.75866 | 109.27956 | 26471 ft | 460 kts | 54° |
| 2026-04-24 07:31 | 16.77665 | 109.30726 | 26752 ft | 462 kts | 54° |
| 2026-04-24 07:31 | 16.78859 | 109.32565 | 26938 ft | 463 kts | 54° |
| 2026-04-24 07:31 | 16.81257 | 109.36271 | 27313 ft | 466 kts | 54° |
| 2026-04-24 07:31 | 16.83067 | 109.39076 | 27603 ft | 467 kts | 54° |
| 2026-04-24 07:32 | 16.84889 | 109.41895 | 27867 ft | 468 kts | 54° |
| 2026-04-24 07:32 | 16.86714 | 109.44708 | 28143 ft | 470 kts | 54° |
| 2026-04-24 07:32 | 16.88550 | 109.47541 | 28423 ft | 472 kts | 54° |
| 2026-04-24 07:32 | 16.90398 | 109.50394 | 28710 ft | 474 kts | 54° |
| 2026-04-24 07:33 | 16.91621 | 109.52280 | 28887 ft | 475 kts | 54° |
| 2026-04-24 07:33 | 16.93473 | 109.55144 | 29163 ft | 477 kts | 54° |
| 2026-04-24 07:33 | 16.95930 | 109.58952 | 29516 ft | 479 kts | 54° |
| 2026-04-24 07:33 | 16.97796 | 109.61845 | 29782 ft | 481 kts | 54° |
| 2026-04-24 07:34 | 16.99658 | 109.64733 | 30109 ft | 480 kts | 54° |
| 2026-04-24 07:34 | 17.01518 | 109.67621 | 30446 ft | 478 kts | 54° |
| 2026-04-24 07:34 | 17.03372 | 109.70500 | 30787 ft | 477 kts | 54° |
| 2026-04-24 07:34 | 17.05222 | 109.73374 | 31133 ft | 476 kts | 54° |
| 2026-04-24 07:35 | 17.06449 | 109.75280 | 31353 ft | 475 kts | 54° |
| 2026-04-24 07:35 | 17.08290 | 109.78141 | 31700 ft | 474 kts | 53° |
| 2026-04-24 07:35 | 17.10130 | 109.80991 | 32059 ft | 473 kts | 53° |
| 2026-04-24 07:35 | 17.11966 | 109.83836 | 32436 ft | 471 kts | 53° |
| 2026-04-24 07:36 | 17.13792 | 109.86670 | 32818 ft | 469 kts | 53° |
| 2026-04-24 07:36 | 17.15611 | 109.89493 | 33194 ft | 468 kts | 53° |
| 2026-04-24 07:36 | 17.17429 | 109.92316 | 33558 ft | 467 kts | 53° |
| 2026-04-24 07:36 | 17.19238 | 109.95133 | 33909 ft | 466 kts | 53° |
| 2026-04-24 07:37 | 17.21041 | 109.97944 | 34205 ft | 465 kts | 53° |
| 2026-04-24 07:37 | 17.22838 | 110.00746 | 34487 ft | 464 kts | 53° |
| 2026-04-24 07:37 | 17.24634 | 110.03544 | 34762 ft | 464 kts | 53° |
| 2026-04-24 07:37 | 17.26412 | 110.06315 | 34874 ft | 465 kts | 53° |
| 2026-04-24 07:38 | 17.30030 | 110.11948 | 34904 ft | 468 kts | 53° |
| 2026-04-24 07:38 | 17.33658 | 110.17604 | 34905 ft | 468 kts | 53° |
| 2026-04-24 07:39 | 17.37287 | 110.23270 | 34910 ft | 468 kts | 53° |
| 2026-04-24 07:39 | 17.40917 | 110.28951 | 34897 ft | 470 kts | 53° |
| 2026-04-24 07:40 | 17.44534 | 110.34585 | 34908 ft | 470 kts | 52° |
| 2026-04-24 07:40 | 17.48216 | 110.40235 | 34913 ft | 470 kts | 52° |
| 2026-04-24 07:41 | 17.51903 | 110.45896 | 34916 ft | 470 kts | 52° |
| 2026-04-24 07:41 | 17.55581 | 110.51554 | 34910 ft | 470 kts | 52° |
| 2026-04-24 07:42 | 17.59253 | 110.57226 | 34912 ft | 470 kts | 52° |
| 2026-04-24 07:42 | 17.62914 | 110.62895 | 34913 ft | 470 kts | 52° |
| 2026-04-24 07:43 | 17.66561 | 110.68530 | 34915 ft | 470 kts | 52° |
| 2026-04-24 07:43 | 17.70235 | 110.74214 | 34916 ft | 470 kts | 52° |
| 2026-04-24 07:44 | 17.73912 | 110.79897 | 34918 ft | 470 kts | 52° |
| 2026-04-24 07:44 | 17.77576 | 110.85582 | 34901 ft | 471 kts | 53° |
| 2026-04-24 07:45 | 17.81246 | 110.91293 | 34897 ft | 472 kts | 53° |
| 2026-04-24 07:45 | 17.84896 | 110.96975 | 34899 ft | 473 kts | 53° |
| 2026-04-24 07:46 | 17.88581 | 111.02699 | 34900 ft | 473 kts | 53° |
| 2026-04-24 07:46 | 17.92264 | 111.08424 | 34916 ft | 474 kts | 53° |
| 2026-04-24 07:47 | 17.95955 | 111.14169 | 34910 ft | 475 kts | 53° |
| 2026-04-24 07:47 | 17.99627 | 111.19886 | 34913 ft | 475 kts | 53° |
| 2026-04-24 07:48 | 18.03319 | 111.25647 | 34914 ft | 476 kts | 53° |
| 2026-04-24 07:48 | 18.07016 | 111.31425 | 34908 ft | 476 kts | 53° |
| 2026-04-24 07:49 | 18.10713 | 111.37203 | 34909 ft | 476 kts | 53° |
| 2026-04-24 07:49 | 18.14409 | 111.42974 | 34919 ft | 476 kts | 53° |
| 2026-04-24 07:50 | 18.18082 | 111.48725 | 34918 ft | 476 kts | 53° |
| 2026-04-24 07:50 | 18.21767 | 111.54513 | 34916 ft | 477 kts | 53° |
| 2026-04-24 07:51 | 18.25461 | 111.60315 | 34916 ft | 477 kts | 53° |
| 2026-04-24 07:51 | 18.29168 | 111.66117 | 34916 ft | 478 kts | 53° |
| 2026-04-24 07:52 | 18.32873 | 111.71932 | 34920 ft | 479 kts | 53° |
| 2026-04-24 07:52 | 18.36583 | 111.77761 | 34916 ft | 479 kts | 53° |
| 2026-04-24 07:53 | 18.40251 | 111.83542 | 34916 ft | 478 kts | 54° |
| 2026-04-24 07:53 | 18.43946 | 111.89379 | 34916 ft | 478 kts | 53° |
| 2026-04-24 07:54 | 18.47637 | 111.95195 | 34922 ft | 478 kts | 54° |
| 2026-04-24 07:54 | 18.51335 | 112.01023 | 34915 ft | 479 kts | 54° |
| 2026-04-24 07:55 | 18.55013 | 112.06823 | 34912 ft | 479 kts | 54° |
| 2026-04-24 07:55 | 18.58733 | 112.12710 | 34912 ft | 480 kts | 54° |
| 2026-04-24 07:56 | 18.62406 | 112.18526 | 34913 ft | 480 kts | 54° |
| 2026-04-24 07:56 | 18.66362 | 112.24149 | 34911 ft | 476 kts | 43° |
| 2026-04-24 07:57 | 18.71471 | 112.28496 | 34915 ft | 471 kts | 32° |
| 2026-04-24 07:57 | 18.76769 | 112.32479 | 34918 ft | 471 kts | 32° |
| 2026-04-24 07:58 | 18.82120 | 112.36498 | 34911 ft | 472 kts | 32° |
| 2026-04-24 07:58 | 18.87459 | 112.40530 | 34909 ft | 473 kts | 32° |
| 2026-04-24 07:59 | 18.92818 | 112.44579 | 34913 ft | 473 kts | 32° |
| 2026-04-24 07:59 | 18.98251 | 112.48484 | 34912 ft | 470 kts | 24° |
| 2026-04-24 08:00 | 19.04252 | 112.50762 | 34925 ft | 459 kts | 5° |
| 2026-04-24 08:00 | 19.10537 | 112.51892 | 34915 ft | 459 kts | 5° |
| 2026-04-24 08:01 | 19.16833 | 112.53053 | 34913 ft | 460 kts | 5° |
| 2026-04-24 08:01 | 19.23147 | 112.54212 | 34914 ft | 460 kts | 5° |
| 2026-04-24 08:02 | 19.29449 | 112.55359 | 34917 ft | 460 kts | 5° |
| 2026-04-24 08:02 | 19.35720 | 112.56504 | 34920 ft | 461 kts | 4° |
| 2026-04-24 08:03 | 19.42049 | 112.57652 | 34907 ft | 462 kts | 4° |
| 2026-04-24 08:03 | 19.48395 | 112.58809 | 34902 ft | 463 kts | 4° |
| 2026-04-24 08:04 | 19.54759 | 112.59977 | 34906 ft | 464 kts | 4° |
| 2026-04-24 08:04 | 19.61118 | 112.61133 | 34907 ft | 464 kts | 4° |
| 2026-04-24 08:05 | 19.67451 | 112.62286 | 34915 ft | 465 kts | 4° |
| 2026-04-24 08:05 | 19.73832 | 112.63466 | 34912 ft | 466 kts | 4° |
| 2026-04-24 08:06 | 19.80231 | 112.64649 | 34917 ft | 467 kts | 4° |
| 2026-04-24 08:06 | 19.86628 | 112.65823 | 34912 ft | 467 kts | 4° |
| 2026-04-24 08:07 | 19.92987 | 112.66979 | 34917 ft | 467 kts | 4° |
| 2026-04-24 08:07 | 19.99402 | 112.68158 | 34934 ft | 468 kts | 4° |
| 2026-04-24 08:08 | 20.05815 | 112.69343 | 34938 ft | 468 kts | 4° |
| 2026-04-24 08:09 | 20.15443 | 112.71109 | 34924 ft | 468 kts | 4° |
| 2026-04-24 08:09 | 20.21823 | 112.72277 | 34929 ft | 468 kts | 4° |
| 2026-04-24 08:10 | 20.28280 | 112.73470 | 34954 ft | 468 kts | 4° |
| 2026-04-24 08:10 | 20.31495 | 112.74062 | 34697 ft | 469 kts | 4° |
| 2026-04-24 08:10 | 20.34701 | 112.74653 | 34352 ft | 465 kts | 3° |
| 2026-04-24 08:10 | 20.37872 | 112.75240 | 34016 ft | 461 kts | 3° |
| 2026-04-24 08:11 | 20.41027 | 112.75827 | 33643 ft | 458 kts | 3° |
| 2026-04-24 08:11 | 20.44155 | 112.76412 | 33259 ft | 455 kts | 3° |
| 2026-04-24 08:11 | 20.47261 | 112.76988 | 32885 ft | 452 kts | 3° |
| 2026-04-24 08:11 | 20.50353 | 112.77556 | 32517 ft | 449 kts | 3° |
| 2026-04-24 08:12 | 20.53421 | 112.78113 | 32153 ft | 446 kts | 3° |
| 2026-04-24 08:12 | 20.56473 | 112.78666 | 31785 ft | 444 kts | 4° |
| 2026-04-24 08:12 | 20.59512 | 112.79226 | 31429 ft | 442 kts | 4° |
| 2026-04-24 08:12 | 20.62537 | 112.79789 | 31079 ft | 439 kts | 4° |
| 2026-04-24 08:13 | 20.65541 | 112.80348 | 30728 ft | 437 kts | 4° |
| 2026-04-24 08:13 | 20.68525 | 112.80905 | 30390 ft | 434 kts | 4° |
| 2026-04-24 08:13 | 20.71449 | 112.81450 | 30059 ft | 432 kts | 4° |
| 2026-04-24 08:13 | 20.74397 | 112.81994 | 29675 ft | 429 kts | 4° |
| 2026-04-24 08:14 | 20.77332 | 112.82532 | 29270 ft | 426 kts | 4° |
| 2026-04-24 08:14 | 20.80246 | 112.83069 | 28878 ft | 423 kts | 4° |
| 2026-04-24 08:14 | 20.83134 | 112.83606 | 28493 ft | 421 kts | 4° |
| 2026-04-24 08:14 | 20.86010 | 112.84141 | 28143 ft | 418 kts | 2° |
| 2026-04-24 08:15 | 20.88873 | 112.84675 | 27767 ft | 415 kts | 1° |
| 2026-04-24 08:15 | 20.91710 | 112.85205 | 27394 ft | 413 kts | 1° |
| 2026-04-24 08:15 | 20.94533 | 112.85730 | 27031 ft | 410 kts | 1° |
| 2026-04-24 08:15 | 20.97333 | 112.86248 | 26663 ft | 408 kts | 1° |
| 2026-04-24 08:16 | 21.00122 | 112.86762 | 26315 ft | 405 kts | 1° |
| 2026-04-24 08:16 | 21.02886 | 112.87272 | 25966 ft | 403 kts | 2° |
| 2026-04-24 08:16 | 21.05612 | 112.87775 | 25618 ft | 401 kts | 2° |
| 2026-04-24 08:16 | 21.08346 | 112.88282 | 25278 ft | 398 kts | 2° |
| 2026-04-24 08:17 | 21.11068 | 112.88790 | 24940 ft | 396 kts | 2° |
| 2026-04-24 08:17 | 21.13814 | 112.89301 | 24596 ft | 394 kts | 2° |
| 2026-04-24 08:17 | 21.16507 | 112.89806 | 24281 ft | 392 kts | 5° |
| 2026-04-24 08:17 | 21.19153 | 112.90301 | 23956 ft | 391 kts | 5° |
| 2026-04-24 08:18 | 21.21823 | 112.90798 | 23633 ft | 389 kts | 5° |
| 2026-04-24 08:18 | 21.24486 | 112.91295 | 23267 ft | 388 kts | 6° |
| 2026-04-24 08:18 | 21.27082 | 112.92101 | 22875 ft | 391 kts | 19° |
| 2026-04-24 08:18 | 21.29490 | 112.93487 | 22490 ft | 394 kts | 32° |
| 2026-04-24 08:19 | 21.31573 | 112.95391 | 22108 ft | 396 kts | 44° |
| 2026-04-24 08:19 | 21.33250 | 112.97738 | 21740 ft | 397 kts | 57° |
| 2026-04-24 08:19 | 21.34432 | 113.00400 | 21376 ft | 397 kts | 69° |
| 2026-04-24 08:19 | 21.35342 | 113.03196 | 21013 ft | 395 kts | 70° |
| 2026-04-24 08:20 | 21.36231 | 113.05932 | 20657 ft | 393 kts | 70° |
| 2026-04-24 08:20 | 21.37128 | 113.08685 | 20305 ft | 390 kts | 70° |
| 2026-04-24 08:20 | 21.38021 | 113.11415 | 19954 ft | 387 kts | 70° |
| 2026-04-24 08:20 | 21.38914 | 113.14142 | 19600 ft | 388 kts | 70° |
| 2026-04-24 08:21 | 21.39810 | 113.16868 | 19258 ft | 386 kts | 70° |
| 2026-04-24 08:21 | 21.40703 | 113.19592 | 18922 ft | 384 kts | 70° |
| 2026-04-24 08:21 | 21.41579 | 113.22286 | 18587 ft | 382 kts | 70° |
| 2026-04-24 08:21 | 21.42452 | 113.24964 | 18255 ft | 378 kts | 70° |
| 2026-04-24 08:22 | 21.43317 | 113.27611 | 17874 ft | 374 kts | 70° |
| 2026-04-24 08:22 | 21.44175 | 113.30236 | 17590 ft | 372 kts | 70° |
| 2026-04-24 08:22 | 21.45024 | 113.32841 | 17336 ft | 369 kts | 70° |
| 2026-04-24 08:22 | 21.45872 | 113.35446 | 17082 ft | 369 kts | 71° |
| 2026-04-24 08:23 | 21.46714 | 113.38033 | 16829 ft | 367 kts | 71° |
| 2026-04-24 08:23 | 21.47542 | 113.40585 | 16584 ft | 365 kts | 71° |
| 2026-04-24 08:23 | 21.48376 | 113.43154 | 16343 ft | 365 kts | 71° |
| 2026-04-24 08:23 | 21.49205 | 113.45719 | 16097 ft | 363 kts | 71° |
| 2026-04-24 08:24 | 21.50032 | 113.48285 | 15861 ft | 362 kts | 71° |
| 2026-04-24 08:24 | 21.50866 | 113.50869 | 15615 ft | 360 kts | 71° |
| 2026-04-24 08:24 | 21.51677 | 113.53371 | 15380 ft | 359 kts | 71° |
| 2026-04-24 08:24 | 21.52531 | 113.55891 | 15148 ft | 358 kts | 66° |
| 2026-04-24 08:25 | 21.53734 | 113.58258 | 14906 ft | 356 kts | 55° |
| 2026-04-24 08:25 | 21.55292 | 113.60304 | 14666 ft | 354 kts | 44° |
| 2026-04-24 08:25 | 21.57055 | 113.62161 | 14434 ft | 353 kts | 43° |
| 2026-04-24 08:25 | 21.58803 | 113.64008 | 14217 ft | 352 kts | 43° |
| 2026-04-24 08:26 | 21.60542 | 113.65856 | 13989 ft | 351 kts | 44° |
| 2026-04-24 08:26 | 21.62276 | 113.67701 | 13757 ft | 350 kts | 44° |
| 2026-04-24 08:26 | 21.63977 | 113.69515 | 13510 ft | 349 kts | 44° |
| 2026-04-24 08:26 | 21.65699 | 113.71339 | 13262 ft | 345 kts | 42° |
| 2026-04-24 08:27 | 21.67435 | 113.73093 | 13009 ft | 342 kts | 40° |
| 2026-04-24 08:27 | 21.69217 | 113.74830 | 12753 ft | 340 kts | 40° |
| 2026-04-24 08:27 | 21.70985 | 113.76529 | 12505 ft | 342 kts | 40° |
| 2026-04-24 08:27 | 21.72761 | 113.78231 | 12261 ft | 342 kts | 40° |
| 2026-04-24 08:28 | 21.74530 | 113.79936 | 12009 ft | 341 kts | 40° |
| 2026-04-24 08:28 | 21.76290 | 113.81645 | 11768 ft | 340 kts | 40° |
| 2026-04-24 08:28 | 21.78037 | 113.83350 | 11524 ft | 339 kts | 40° |
| 2026-04-24 08:28 | 21.79753 | 113.85031 | 11279 ft | 337 kts | 41° |
| 2026-04-24 08:29 | 21.81532 | 113.86765 | 11049 ft | 336 kts | 38° |
| 2026-04-24 08:29 | 21.83494 | 113.88092 | 10812 ft | 330 kts | 20° |
| 2026-04-24 08:29 | 21.85687 | 113.88731 | 10412 ft | 325 kts | 2° |
| 2026-04-24 08:29 | 21.87920 | 113.88632 | 10049 ft | 317 kts | 344° |
| 2026-04-24 08:30 | 21.89952 | 113.87893 | 9917 ft | 302 kts | 330° |
| 2026-04-24 08:30 | 21.91824 | 113.86958 | 9611 ft | 299 kts | 330° |
| 2026-04-24 08:30 | 21.93718 | 113.86021 | 9251 ft | 298 kts | 332° |
| 2026-04-24 08:30 | 21.95596 | 113.85093 | 8893 ft | 297 kts | 332° |
| 2026-04-24 08:31 | 21.97484 | 113.84159 | 8577 ft | 301 kts | 328° |
| 2026-04-24 08:31 | 21.99447 | 113.83179 | 8332 ft | 319 kts | 331° |
| 2026-04-24 08:31 | 22.01477 | 113.82167 | 8192 ft | 318 kts | 333° |
| 2026-04-24 08:31 | 22.03451 | 113.81188 | 8060 ft | 308 kts | 332° |
| 2026-04-24 08:32 | 22.05367 | 113.80239 | 7893 ft | 296 kts | 332° |
| 2026-04-24 08:32 | 22.07211 | 113.79324 | 7306 ft | 291 kts | 332° |
| 2026-04-24 08:32 | 22.09049 | 113.78407 | 6675 ft | 290 kts | 332° |